createdAt,value
2018-05-06T00:00:50.973Z,5.50
2018-05-06T00:01:50.973Z,5.40
2018-05-06T00:02:50.889Z,3.50
2018-05-06T00:03:50.841Z,3.40
2018-05-06T00:04:50.841Z,3.20
2018-05-06T00:05:50.766Z,4.20
2018-05-06T00:06:50.721Z,4.10
2018-05-06T00:07:50.680Z,5.40
2018-05-06T00:08:50.643Z,6.10
2018-05-06T00:09:50.628Z,3.50
2018-05-06T00:10:50.570Z,3.60
2018-05-06T00:11:50.533Z,3.60
2018-05-06T00:12:50.516Z,3.60
2018-05-06T00:13:50.451Z,4.60
2018-05-06T00:14:50.437Z,5.80
2018-05-06T00:15:50.361Z,4.20
2018-05-06T00:16:50.323Z,4.10
2018-05-06T00:17:50.286Z,3.90
2018-05-06T00:18:50.260Z,3.20
2018-05-06T00:19:50.246Z,3.60
2018-05-06T00:20:50.156Z,4.00
2018-05-06T00:21:50.125Z,3.50
2018-05-06T00:22:50.088Z,5.00
2018-05-06T00:23:50.052Z,4.70
2018-05-06T00:24:50.035Z,3.60
2018-05-06T00:25:49.967Z,4.50
2018-05-06T00:26:49.931Z,4.90
2018-05-06T00:27:49.877Z,5.10
2018-05-06T00:28:49.840Z,3.80
2018-05-06T00:29:49.831Z,3.90
2018-05-06T00:30:49.772Z,4.90
2018-05-06T00:31:49.737Z,5.30
2018-05-06T00:32:49.695Z,3.60
2018-05-06T00:33:49.669Z,3.70
2018-05-06T00:34:49.614Z,3.80
2018-05-06T00:35:49.564Z,3.60
2018-05-06T00:36:49.527Z,4.60
2018-05-06T00:37:49.484Z,5.30
2018-05-06T00:38:49.470Z,4.60
2018-05-06T00:39:49.397Z,3.50
2018-05-06T00:40:49.357Z,4.80
2018-05-06T00:41:49.321Z,4.00
2018-05-06T00:42:49.284Z,4.00
2018-05-06T00:43:49.271Z,3.20
2018-05-06T00:44:49.206Z,4.30
2018-05-06T00:45:49.162Z,3.30
2018-05-06T00:46:49.120Z,4.90
2018-05-06T00:47:49.074Z,4.70
2018-05-06T00:48:49.071Z,4.20
2018-05-06T00:49:48.997Z,3.30
2018-05-06T00:50:48.962Z,7.20
2018-05-06T00:51:48.924Z,3.70
2018-05-06T00:52:48.874Z,4.00
2018-05-06T00:53:48.863Z,3.90
2018-05-06T00:54:48.860Z,4.40
2018-05-06T00:55:48.766Z,4.90
2018-05-06T00:56:48.724Z,4.80
2018-05-06T00:57:48.690Z,4.60
2018-05-06T00:58:48.658Z,6.60
2018-05-06T00:59:48.590Z,3.50
2018-05-06T01:00:48.555Z,4.60
2018-05-06T01:01:48.510Z,3.70
2018-05-06T01:02:48.591Z,3.80
2018-05-06T01:03:48.461Z,4.30
2018-05-06T01:04:48.395Z,4.00
2018-05-06T01:05:48.359Z,4.00
2018-05-06T01:06:48.319Z,3.50
2018-05-06T01:07:48.296Z,5.70
2018-05-06T01:08:48.233Z,4.20
2018-05-06T01:09:48.198Z,4.20
2018-05-06T01:10:48.148Z,5.10
2018-05-06T01:11:48.109Z,4.50
2018-05-06T01:12:48.095Z,3.90
2018-05-06T01:13:48.026Z,4.20
2018-05-06T01:14:47.992Z,4.80
2018-05-06T01:15:47.952Z,4.70
2018-05-06T01:16:47.910Z,4.30
2018-05-06T01:17:47.897Z,4.10
2018-05-06T01:18:47.821Z,4.20
2018-05-06T01:19:47.789Z,4.00
2018-05-06T01:20:47.750Z,4.50
2018-05-06T01:21:47.697Z,4.00
2018-05-06T01:22:47.694Z,3.60
2018-05-06T01:23:47.627Z,3.50
2018-05-06T01:24:47.582Z,4.60
2018-05-06T01:25:47.535Z,3.30
2018-05-06T01:26:47.508Z,4.00
2018-05-06T01:27:47.485Z,3.80
2018-05-06T01:28:47.423Z,4.40
2018-05-06T01:29:47.387Z,4.00
2018-05-06T01:30:47.336Z,3.50
2018-05-06T01:31:47.305Z,3.10
2018-05-06T01:32:47.287Z,4.40
2018-05-06T01:33:47.218Z,4.50
2018-05-06T01:34:47.184Z,4.90
2018-05-06T01:35:47.143Z,3.10
2018-05-06T01:36:47.151Z,3.90
2018-05-06T01:37:47.094Z,3.80
2018-05-06T01:38:47.011Z,4.40
2018-05-06T01:39:46.976Z,5.00
2018-05-06T01:40:57.120Z,3.90
2018-05-06T01:41:46.893Z,3.70
2018-05-06T01:42:46.875Z,3.40
2018-05-06T01:43:46.805Z,6.40
2018-05-06T01:44:46.778Z,3.70
2018-05-06T01:45:46.734Z,4.40
2018-05-06T01:46:46.715Z,3.10
2018-05-06T01:47:46.654Z,4.00
2018-05-06T01:48:46.607Z,3.40
2018-05-06T01:49:46.566Z,4.90
2018-05-06T01:50:46.528Z,5.10
2018-05-06T01:51:46.504Z,4.80
2018-05-06T01:52:46.452Z,3.80
2018-05-06T01:53:46.410Z,3.80
2018-05-06T01:54:46.364Z,3.40
2018-05-06T01:55:46.322Z,3.80
2018-05-06T01:56:46.309Z,3.90
2018-05-06T01:57:46.246Z,4.40
2018-05-06T01:58:46.202Z,3.60
2018-05-06T01:59:46.170Z,3.30
2018-05-06T02:00:46.141Z,5.00
2018-05-06T02:01:46.103Z,3.90
2018-05-06T02:02:46.043Z,3.60
2018-05-06T02:03:45.993Z,4.90
2018-05-06T02:04:45.982Z,5.10
2018-05-06T02:05:45.918Z,5.30
2018-05-06T02:06:45.899Z,4.70
2018-05-06T02:07:45.839Z,4.30
2018-05-06T02:08:45.787Z,4.30
2018-05-06T02:09:45.755Z,3.60
2018-05-06T02:10:45.715Z,4.60
2018-05-06T02:11:45.703Z,5.10
2018-05-06T02:12:45.627Z,4.70
2018-05-06T02:13:45.594Z,3.70
2018-05-06T02:14:45.549Z,4.10
2018-05-06T02:15:45.505Z,4.10
2018-05-06T02:16:45.500Z,5.00
2018-05-06T02:17:45.430Z,4.30
2018-05-06T02:18:45.390Z,5.00
2018-05-06T02:19:45.352Z,5.80
2018-05-06T02:20:45.329Z,3.80
2018-05-06T02:21:45.269Z,5.30
2018-05-06T02:22:45.226Z,4.60
2018-05-06T02:23:45.183Z,4.70
2018-05-06T02:24:45.150Z,4.30
2018-05-06T02:25:45.127Z,4.70
2018-05-06T02:26:45.063Z,5.20
2018-05-06T02:27:45.075Z,3.90
2018-05-06T02:28:44.985Z,4.20
2018-05-06T02:29:44.941Z,3.60
2018-05-06T02:30:44.922Z,4.10
2018-05-06T02:31:44.863Z,5.10
2018-05-06T02:32:44.813Z,4.90
2018-05-06T02:33:44.772Z,4.60
2018-05-06T02:34:44.732Z,4.50
2018-05-06T02:35:44.722Z,3.40
2018-05-06T02:36:44.669Z,5.50
2018-05-06T02:37:44.617Z,5.20
2018-05-06T02:38:44.578Z,4.50
2018-05-06T02:39:44.533Z,3.60
2018-05-06T02:40:44.486Z,3.80
2018-05-06T02:41:44.476Z,4.70
2018-05-06T02:42:44.409Z,6.10
2018-05-06T02:43:44.375Z,5.70
2018-05-06T02:44:44.323Z,4.50
2018-05-06T02:45:44.285Z,4.90
2018-05-06T02:46:44.266Z,4.30
2018-05-06T02:47:44.198Z,6.20
2018-05-06T02:48:44.169Z,4.50
2018-05-06T02:49:44.125Z,5.60
2018-05-06T02:50:44.080Z,4.70
2018-05-06T02:51:53.663Z,5.60
2018-05-06T02:52:43.999Z,4.40
2018-05-06T02:53:43.953Z,5.90
2018-05-06T02:54:43.923Z,5.00
2018-05-06T02:55:43.877Z,5.10
2018-05-06T02:56:43.833Z,4.50
2018-05-06T02:57:43.815Z,5.10
2018-05-06T02:58:43.756Z,4.10
2018-05-06T02:59:43.714Z,4.00
2018-05-06T03:00:43.668Z,5.20
2018-05-06T03:01:43.634Z,5.20
2018-05-06T03:02:43.579Z,4.00
2018-05-06T03:03:43.576Z,5.90
2018-05-06T03:04:43.507Z,4.30
2018-05-06T03:05:43.459Z,4.50
2018-05-06T03:06:43.425Z,4.10
2018-05-06T03:07:43.382Z,4.60
2018-05-06T03:08:43.343Z,4.40
2018-05-06T03:09:43.331Z,3.90
2018-05-06T03:10:43.256Z,3.80
2018-05-06T03:11:43.217Z,4.10
2018-05-06T03:12:43.188Z,4.10
2018-05-06T03:13:43.145Z,5.20
2018-05-06T03:14:51.685Z,3.90
2018-05-06T03:15:43.046Z,5.30
2018-05-06T03:16:43.020Z,4.10
2018-05-06T03:17:42.979Z,4.90
2018-05-06T03:18:42.930Z,5.10
2018-05-06T03:19:42.895Z,4.80
2018-05-06T03:20:42.871Z,5.80
2018-05-06T03:21:42.801Z,5.30
2018-05-06T03:22:42.764Z,5.60
2018-05-06T03:23:42.715Z,6.60
2018-05-06T03:24:42.684Z,5.60
2018-05-06T03:25:42.641Z,4.70
2018-05-06T03:26:42.618Z,5.50
2018-05-06T03:27:42.556Z,5.80
2018-05-06T03:28:42.523Z,4.30
2018-05-06T03:29:42.475Z,5.00
2018-05-06T03:30:42.438Z,5.20
2018-05-06T03:31:42.426Z,4.20
2018-05-06T03:32:42.345Z,6.20
2018-05-06T03:33:42.310Z,7.20
2018-05-06T03:34:42.263Z,6.00
2018-05-06T03:35:42.221Z,7.30
2018-05-06T03:36:42.190Z,5.60
2018-05-06T03:37:51.732Z,5.30
2018-05-06T03:38:42.094Z,4.90
2018-05-06T03:39:42.063Z,5.30
2018-05-06T03:40:42.026Z,4.80
2018-05-06T03:41:41.988Z,6.60
2018-05-06T03:42:41.927Z,6.60
2018-05-06T03:43:41.917Z,6.50
2018-05-06T03:44:41.851Z,4.20
2018-05-06T03:45:41.810Z,6.40
2018-05-06T03:46:41.775Z,4.60
2018-05-06T03:47:41.733Z,6.30
2018-05-06T03:48:41.723Z,7.30
2018-05-06T03:49:41.651Z,5.20
2018-05-06T03:50:41.601Z,7.00
2018-05-06T03:51:41.572Z,5.80
2018-05-06T03:52:41.523Z,7.70
2018-05-06T03:53:48.205Z,5.90
2018-05-06T03:54:41.482Z,5.70
2018-05-06T03:55:41.399Z,6.90
2018-05-06T03:56:41.366Z,4.20
2018-05-06T03:57:41.311Z,8.30
2018-05-06T03:58:41.277Z,4.60
2018-05-06T03:59:41.238Z,6.40
2018-05-06T04:00:51.741Z,7.00
2018-05-06T04:01:41.153Z,5.80
2018-05-06T04:02:41.107Z,7.70
2018-05-06T04:03:41.063Z,6.60
2018-05-06T04:04:41.033Z,7.20
2018-05-06T04:05:41.092Z,6.20
2018-05-06T04:06:40.947Z,6.70
2018-05-06T04:07:40.906Z,5.30
2018-05-06T04:08:40.858Z,6.80
2018-05-06T04:09:40.817Z,6.70
2018-05-06T04:10:40.780Z,5.90
2018-05-06T04:11:40.769Z,6.60
2018-05-06T04:12:40.693Z,5.40
2018-05-06T04:13:40.652Z,5.70
2018-05-06T04:14:40.611Z,5.20
2018-05-06T04:15:40.568Z,6.60
2018-05-06T04:16:40.557Z,6.40
2018-05-06T04:17:40.489Z,6.80
2018-05-06T04:18:40.447Z,6.40
2018-05-06T04:19:40.409Z,5.60
2018-05-06T04:20:40.356Z,5.80
2018-05-06T04:21:40.353Z,5.50
2018-05-06T04:22:40.280Z,7.20
2018-05-06T04:23:40.236Z,5.30
2018-05-06T04:24:40.204Z,5.20
2018-05-06T04:25:40.165Z,7.30
2018-05-06T04:26:40.116Z,6.90
2018-05-06T04:27:40.099Z,5.40
2018-05-06T04:28:40.040Z,6.70
2018-05-06T04:29:39.995Z,4.60
2018-05-06T04:30:39.950Z,7.10
2018-05-06T04:31:39.917Z,7.70
2018-05-06T04:32:39.861Z,5.80
2018-05-06T04:33:39.848Z,6.10
2018-05-06T04:34:39.783Z,6.30
2018-05-06T04:35:39.739Z,5.00
2018-05-06T04:36:39.708Z,5.40
2018-05-06T04:37:39.665Z,5.40
2018-05-06T04:38:39.650Z,5.80
2018-05-06T04:39:39.584Z,7.10
2018-05-06T04:40:39.533Z,4.90
2018-05-06T04:41:39.494Z,4.60
2018-05-06T04:42:39.461Z,5.00
2018-05-06T04:43:39.423Z,5.90
2018-05-06T04:44:39.392Z,5.70
2018-05-06T04:45:39.330Z,7.10
2018-05-06T04:46:39.290Z,6.40
2018-05-06T04:47:39.246Z,5.10
2018-05-06T04:48:39.235Z,5.60
2018-05-06T04:49:39.200Z,4.80
2018-05-06T04:50:39.133Z,4.70
2018-05-06T04:51:39.092Z,6.10
2018-05-06T04:52:39.043Z,4.90
2018-05-06T04:53:39.007Z,7.10
2018-05-06T04:54:38.961Z,5.00
2018-05-06T04:55:38.938Z,4.30
2018-05-06T04:56:38.886Z,5.40
2018-05-06T04:57:38.841Z,6.70
2018-05-06T04:58:38.796Z,5.80
2018-05-06T04:59:38.781Z,5.80
2018-05-06T05:00:38.737Z,5.10
2018-05-06T05:01:38.679Z,5.30
2018-05-06T05:02:38.639Z,4.70
2018-05-06T05:03:38.603Z,5.10
2018-05-06T05:04:38.556Z,4.20
2018-05-06T05:05:38.540Z,5.20
2018-05-06T05:06:38.472Z,5.60
2018-05-06T05:07:38.426Z,5.60
2018-05-06T05:08:38.401Z,5.60
2018-05-06T05:09:38.368Z,4.40
2018-05-06T05:10:38.320Z,4.20
2018-05-06T05:11:38.308Z,6.10
2018-05-06T05:12:38.235Z,3.90
2018-05-06T05:13:38.195Z,4.50
2018-05-06T05:14:38.163Z,4.90
2018-05-06T05:15:38.124Z,4.30
2018-05-06T05:16:38.106Z,5.10
2018-05-06T05:17:38.038Z,5.40
2018-05-06T05:18:38.006Z,5.50
2018-05-06T05:19:37.972Z,4.90
2018-05-06T05:20:37.938Z,3.80
2018-05-06T05:21:37.892Z,5.10
2018-05-06T05:22:37.896Z,4.40
2018-05-06T05:23:37.834Z,5.60
2018-05-06T05:24:37.778Z,5.80
2018-05-06T05:25:37.750Z,5.00
2018-05-06T05:26:37.717Z,6.90
2018-05-06T05:27:37.665Z,4.10
2018-05-06T05:28:37.669Z,5.40
2018-05-06T05:29:37.610Z,5.00
2018-05-06T05:30:37.564Z,4.00
2018-05-06T05:31:37.543Z,3.60
2018-05-06T05:32:37.500Z,4.70
2018-05-06T05:33:37.456Z,3.70
2018-05-06T05:34:37.451Z,4.20
2018-05-06T05:35:37.393Z,3.90
2018-05-06T05:36:37.349Z,5.30
2018-05-06T05:37:37.315Z,4.30
2018-05-06T05:38:37.277Z,5.20
2018-05-06T05:39:37.267Z,4.50
2018-05-06T05:40:37.217Z,4.10
2018-05-06T05:41:37.179Z,4.10
2018-05-06T05:42:37.148Z,4.20
2018-05-06T05:43:37.112Z,4.20
2018-05-06T05:44:37.072Z,4.80
2018-05-06T05:45:37.061Z,3.70
2018-05-06T05:46:37.009Z,4.10
2018-05-06T05:47:36.988Z,5.20
2018-05-06T05:48:36.937Z,3.80
2018-05-06T05:49:36.901Z,4.90
2018-05-06T05:50:36.918Z,4.30
2018-05-06T05:51:36.858Z,5.20
2018-05-06T05:52:36.804Z,4.50
2018-05-06T05:53:36.763Z,3.90
2018-05-06T05:54:36.730Z,6.00
2018-05-06T05:55:36.754Z,3.80
2018-05-06T05:56:36.688Z,4.30
2018-05-06T05:57:36.635Z,4.70
2018-05-06T05:58:36.605Z,5.00
2018-05-06T05:59:36.553Z,3.50
2018-05-06T06:00:36.537Z,3.20
2018-05-06T06:01:36.570Z,4.60
2018-05-06T06:02:36.492Z,4.00
2018-05-06T06:03:36.428Z,4.30
2018-05-06T06:04:36.409Z,5.00
2018-05-06T06:05:36.369Z,3.70
2018-05-06T06:06:36.331Z,4.70
2018-05-06T06:07:36.308Z,3.90
2018-05-06T06:08:36.281Z,3.50
2018-05-06T06:09:36.234Z,4.50
2018-05-06T06:10:36.192Z,4.30
2018-05-06T06:11:36.159Z,4.10
2018-05-06T06:12:36.144Z,4.00
2018-05-06T06:13:36.135Z,4.70
2018-05-06T06:14:36.066Z,3.60
2018-05-06T06:15:36.100Z,3.60
2018-05-06T06:16:35.996Z,5.60
2018-05-06T06:17:35.971Z,4.20
2018-05-06T06:18:35.939Z,4.20
2018-05-06T06:19:35.932Z,3.90
2018-05-06T06:20:35.866Z,4.40
2018-05-06T06:21:35.839Z,4.40
2018-05-06T06:22:35.841Z,5.40
2018-05-06T06:23:35.774Z,3.10
2018-05-06T06:24:35.774Z,3.80
2018-05-06T06:25:35.737Z,3.40
2018-05-06T06:26:35.676Z,5.80
2018-05-06T06:27:35.650Z,3.90
2018-05-06T06:28:35.609Z,3.50
2018-05-06T06:29:35.580Z,2.80
2018-05-06T06:30:35.553Z,4.30
2018-05-06T06:31:35.539Z,4.80
2018-05-06T06:32:35.489Z,2.70
2018-05-06T06:33:35.455Z,3.60
2018-05-06T06:34:35.423Z,4.30
2018-05-06T06:35:35.383Z,3.70
2018-05-06T06:36:35.391Z,3.60
2018-05-06T06:37:35.328Z,4.20
2018-05-06T06:38:35.302Z,2.70
2018-05-06T06:39:35.269Z,2.40
2018-05-06T06:40:35.227Z,3.80
2018-05-06T06:41:35.223Z,3.40
2018-05-06T06:42:35.173Z,2.80
2018-05-06T06:43:35.152Z,3.60
2018-05-06T06:44:35.114Z,2.70
2018-05-06T06:45:35.087Z,3.50
2018-05-06T06:46:35.073Z,3.40
2018-05-06T06:47:35.053Z,2.80
2018-05-06T06:48:34.977Z,2.20
2018-05-06T06:49:34.949Z,3.90
2018-05-06T06:50:34.935Z,4.30
2018-05-06T06:51:34.927Z,2.70
2018-05-06T06:52:34.855Z,3.10
2018-05-06T06:53:45.295Z,2.80
2018-05-06T06:54:34.809Z,3.50
2018-05-06T06:55:34.796Z,2.90
2018-05-06T06:56:34.738Z,2.60
2018-05-06T06:57:34.741Z,2.50
2018-05-06T06:58:34.672Z,3.10
2018-05-06T06:59:34.645Z,3.30
2018-05-06T07:00:34.615Z,2.10
2018-05-06T07:01:34.579Z,2.50
2018-05-06T07:02:34.575Z,2.30
2018-05-06T07:03:34.553Z,2.20
2018-05-06T07:04:34.552Z,2.80
2018-05-06T07:05:34.450Z,3.40
2018-05-06T07:06:43.872Z,4.00
2018-05-06T07:07:34.442Z,3.20
2018-05-06T07:08:34.401Z,3.00
2018-05-06T07:09:34.343Z,3.40
2018-05-06T07:10:34.315Z,3.00
2018-05-06T07:11:34.272Z,4.30
2018-05-06T07:12:34.255Z,2.20
2018-05-06T07:13:34.301Z,3.20
2018-05-06T07:14:34.236Z,4.40
2018-05-06T07:15:34.160Z,2.00
2018-05-06T07:16:34.123Z,3.80
2018-05-06T07:17:34.093Z,3.40
2018-05-06T07:18:34.072Z,3.30
2018-05-06T07:19:34.041Z,2.80
2018-05-06T07:20:34.045Z,3.10
2018-05-06T07:21:33.968Z,4.20
2018-05-06T07:22:33.939Z,3.50
2018-05-06T07:23:33.912Z,3.90
2018-05-06T07:24:33.882Z,3.10
2018-05-06T07:25:33.847Z,4.00
2018-05-06T07:26:33.841Z,3.50
2018-05-06T07:27:33.793Z,2.90
2018-05-06T07:28:33.748Z,3.10
2018-05-06T07:29:33.722Z,4.10
2018-05-06T07:30:33.699Z,3.30
2018-05-06T07:31:33.687Z,2.50
2018-05-06T07:32:33.635Z,3.00
2018-05-06T07:33:33.604Z,3.20
2018-05-06T07:34:33.574Z,2.90
2018-05-06T07:35:33.538Z,2.40
2018-05-06T07:36:33.519Z,2.30
2018-05-06T07:37:33.505Z,4.70
2018-05-06T07:38:33.452Z,2.20
2018-05-06T07:39:33.427Z,4.10
2018-05-06T07:40:33.385Z,2.90
2018-05-06T07:41:33.403Z,2.70
2018-05-06T07:42:33.357Z,3.10
2018-05-06T07:43:33.294Z,3.30
2018-05-06T07:44:33.270Z,4.20
2018-05-06T07:45:33.240Z,2.40
2018-05-06T07:46:33.205Z,3.10
2018-05-06T07:47:33.190Z,2.80
2018-05-06T07:48:33.164Z,3.70
2018-05-06T07:49:33.115Z,2.90
2018-05-06T07:50:33.090Z,2.70
2018-05-06T07:51:33.062Z,3.30
2018-05-06T07:52:33.017Z,3.00
2018-05-06T07:53:33.020Z,2.70
2018-05-06T07:54:32.962Z,3.10
2018-05-06T07:55:32.952Z,3.30
2018-05-06T07:56:32.909Z,3.70
2018-05-06T07:57:32.877Z,3.80
2018-05-06T07:58:32.850Z,2.80
2018-05-06T07:59:32.850Z,2.80
2018-05-06T08:00:32.776Z,3.40
2018-05-06T08:01:32.761Z,4.00
2018-05-06T08:02:32.724Z,2.20
2018-05-06T08:03:32.692Z,4.20
2018-05-06T08:04:32.667Z,3.40
2018-05-06T08:05:32.662Z,2.30
2018-05-06T08:06:32.604Z,3.60
2018-05-06T08:07:32.569Z,2.10
2018-05-06T08:08:32.558Z,1.90
2018-05-06T08:09:32.519Z,2.30
2018-05-06T08:10:32.487Z,2.30
2018-05-06T08:11:32.490Z,2.60
2018-05-06T08:12:32.425Z,4.00
2018-05-06T08:13:32.396Z,3.40
2018-05-06T08:14:32.371Z,2.60
2018-05-06T08:15:32.332Z,3.60
2018-05-06T08:16:42.892Z,3.10
2018-05-06T08:17:32.289Z,3.70
2018-05-06T08:18:32.249Z,3.70
2018-05-06T08:19:32.222Z,2.80
2018-05-06T08:20:32.195Z,3.90
2018-05-06T08:21:32.210Z,3.00
2018-05-06T08:22:32.134Z,2.90
2018-05-06T08:23:32.151Z,2.40
2018-05-06T08:24:32.079Z,4.00
2018-05-06T08:25:32.076Z,3.30
2018-05-06T08:26:32.082Z,3.00
2018-05-06T08:27:31.993Z,4.00
2018-05-06T08:28:32.185Z,3.30
2018-05-06T08:29:31.941Z,3.20
2018-05-06T08:30:31.900Z,3.90
2018-05-06T08:31:31.879Z,3.60
2018-05-06T08:32:31.870Z,4.20
2018-05-06T08:33:31.808Z,2.80
2018-05-06T08:34:31.796Z,3.80
2018-05-06T08:35:31.758Z,4.50
2018-05-06T08:36:31.738Z,2.80
2018-05-06T08:37:31.730Z,3.60
2018-05-06T08:38:31.675Z,2.30
2018-05-06T08:39:31.649Z,3.10
2018-05-06T08:40:31.624Z,3.30
2018-05-06T08:41:31.596Z,2.50
2018-05-06T08:42:31.588Z,2.70
2018-05-06T08:43:31.533Z,3.40
2018-05-06T08:44:31.519Z,3.20
2018-05-06T08:45:31.470Z,3.20
2018-05-06T08:46:31.464Z,2.50
2018-05-06T08:47:31.429Z,2.00
2018-05-06T08:48:31.420Z,3.10
2018-05-06T08:49:31.370Z,3.20
2018-05-06T08:50:31.333Z,2.80
2018-05-06T08:51:31.382Z,2.70
2018-05-06T08:52:31.289Z,2.50
2018-05-06T08:53:31.285Z,4.10
2018-05-06T08:54:31.223Z,3.40
2018-05-06T08:55:31.192Z,2.50
2018-05-06T08:56:31.165Z,4.10
2018-05-06T08:57:31.150Z,2.80
2018-05-06T08:58:31.156Z,3.80
2018-05-06T08:59:31.141Z,4.50
2018-05-06T09:00:31.062Z,3.00
2018-05-06T09:01:31.045Z,3.80
2018-05-06T09:02:31.008Z,3.00
2018-05-06T09:03:30.988Z,3.00
2018-05-06T09:04:30.990Z,3.10
2018-05-06T09:05:30.928Z,3.60
2018-05-06T09:06:30.905Z,2.90
2018-05-06T09:07:31.015Z,3.20
2018-05-06T09:08:30.857Z,2.30
2018-05-06T09:09:30.815Z,3.20
2018-05-06T09:10:30.829Z,3.30
2018-05-06T09:11:30.782Z,2.90
2018-05-06T09:12:30.758Z,4.80
2018-05-06T09:13:30.721Z,1.90
2018-05-06T09:14:30.720Z,3.50
2018-05-06T09:15:30.701Z,2.90
2018-05-06T09:16:30.632Z,2.90
2018-05-06T09:17:30.612Z,3.90
2018-05-06T09:18:30.590Z,3.30
2018-05-06T09:19:30.568Z,2.70
2018-05-06T09:20:30.546Z,2.80
2018-05-06T09:21:30.536Z,3.00
2018-05-06T09:22:30.489Z,4.80
2018-05-06T09:23:30.453Z,2.30
2018-05-06T09:24:30.447Z,3.00
2018-05-06T09:25:30.470Z,4.50
2018-05-06T09:26:30.425Z,3.00
2018-05-06T09:27:30.352Z,3.60
2018-05-06T09:28:30.323Z,3.20
2018-05-06T09:29:30.306Z,3.20
2018-05-06T09:30:30.305Z,3.40
2018-05-06T09:31:30.257Z,3.20
2018-05-06T09:32:30.286Z,5.40
2018-05-06T09:33:30.282Z,3.40
2018-05-06T09:34:30.194Z,3.40
2018-05-06T09:35:30.156Z,4.50
2018-05-06T09:36:30.133Z,3.80
2018-05-06T09:37:30.141Z,4.00
2018-05-06T09:38:30.090Z,4.20
2018-05-06T09:39:30.059Z,3.40
2018-05-06T09:40:30.020Z,5.10
2018-05-06T09:41:30.001Z,4.30
2018-05-06T09:42:29.981Z,3.00
2018-05-06T09:43:29.987Z,4.70
2018-05-06T09:44:29.944Z,3.90
2018-05-06T09:45:29.903Z,3.20
2018-05-06T09:46:29.880Z,2.70
2018-05-06T09:47:29.883Z,4.30
2018-05-06T09:48:29.854Z,5.90
2018-05-06T09:49:29.805Z,3.00
2018-05-06T09:50:29.798Z,4.10
2018-05-06T09:51:29.764Z,3.70
2018-05-06T09:52:29.741Z,4.20
2018-05-06T09:53:29.732Z,3.10
2018-05-06T09:54:29.733Z,3.20
2018-05-06T09:55:29.657Z,3.50
2018-05-06T09:56:29.659Z,3.00
2018-05-06T09:57:29.622Z,3.50
2018-05-06T09:58:29.616Z,2.20
2018-05-06T09:59:29.580Z,2.70
2018-05-06T10:00:29.541Z,4.10
2018-05-06T10:01:29.537Z,3.00
2018-05-06T10:02:29.505Z,3.70
2018-05-06T10:03:29.530Z,4.10
2018-05-06T10:04:29.455Z,3.30
2018-05-06T10:05:29.433Z,3.60
2018-05-06T10:06:29.406Z,3.90
2018-05-06T10:07:29.375Z,2.70
2018-05-06T10:08:29.392Z,4.80
2018-05-06T10:09:29.341Z,3.40
2018-05-06T10:10:29.332Z,2.60
2018-05-06T10:11:29.298Z,3.50
2018-05-06T10:12:29.251Z,3.90
2018-05-06T10:13:29.229Z,2.60
2018-05-06T10:14:29.254Z,3.30
2018-05-06T10:15:29.210Z,3.60
2018-05-06T10:16:29.180Z,2.90
2018-05-06T10:17:29.168Z,2.20
2018-05-06T10:18:29.142Z,3.50
2018-05-06T10:19:29.086Z,3.00
2018-05-06T10:20:29.082Z,3.80
2018-05-06T10:21:29.043Z,3.80
2018-05-06T10:22:29.041Z,3.50
2018-05-06T10:23:29.010Z,4.40
2018-05-06T10:24:28.982Z,3.00
2018-05-06T10:25:28.987Z,1.80
2018-05-06T10:26:28.926Z,3.80
2018-05-06T10:27:28.942Z,2.80
2018-05-06T10:28:28.889Z,2.10
2018-05-06T10:29:28.866Z,2.80
2018-05-06T10:30:28.858Z,2.90
2018-05-06T10:31:28.828Z,2.50
2018-05-06T10:32:28.779Z,2.10
2018-05-06T10:33:28.763Z,4.00
2018-05-06T10:34:28.761Z,3.00
2018-05-06T10:35:28.730Z,2.30
2018-05-06T10:36:28.709Z,2.50
2018-05-06T10:37:28.692Z,3.60
2018-05-06T10:38:28.713Z,1.90
2018-05-06T10:39:28.611Z,2.80
2018-05-06T10:40:28.581Z,3.10
2018-05-06T10:41:28.571Z,2.50
2018-05-06T10:42:28.639Z,3.70
2018-05-06T10:43:28.537Z,4.30
2018-05-06T10:44:28.563Z,2.60
2018-05-06T10:45:28.479Z,3.80
2018-05-06T10:46:28.444Z,2.90
2018-05-06T10:47:28.427Z,2.50
2018-05-06T10:48:28.439Z,2.00
2018-05-06T10:49:28.372Z,3.20
2018-05-06T10:50:28.392Z,2.10
2018-05-06T10:51:28.321Z,3.50
2018-05-06T10:52:28.296Z,2.20
2018-05-06T10:53:28.309Z,1.80
2018-05-06T10:54:28.253Z,3.10
2018-05-06T10:55:28.237Z,1.50
2018-05-06T10:56:28.213Z,1.70
2018-05-06T10:57:28.173Z,2.80
2018-05-06T10:58:28.157Z,2.00
2018-05-06T10:59:28.146Z,2.90
2018-05-06T11:00:28.112Z,2.80
2018-05-06T11:01:28.079Z,3.10
2018-05-06T11:02:28.052Z,2.00
2018-05-06T11:03:28.171Z,2.30
2018-05-06T11:04:37.984Z,2.60
2018-05-06T11:05:27.992Z,2.90
2018-05-06T11:06:27.966Z,1.90
2018-05-06T11:07:27.940Z,2.30
2018-05-06T11:08:27.917Z,2.00
2018-05-06T11:09:27.892Z,2.60
2018-05-06T11:10:27.987Z,2.60
2018-05-06T11:11:27.842Z,2.40
2018-05-06T11:12:27.833Z,2.50
2018-05-06T11:13:27.808Z,3.20
2018-05-06T11:14:27.811Z,2.10
2018-05-06T11:15:27.787Z,3.20
2018-05-06T11:16:27.735Z,1.80
2018-05-06T11:17:27.720Z,1.40
2018-05-06T11:18:27.702Z,2.40
2018-05-06T11:19:27.678Z,2.60
2018-05-06T11:20:27.645Z,1.80
2018-05-06T11:21:27.727Z,2.20
2018-05-06T11:22:27.609Z,1.50
2018-05-06T11:23:27.580Z,1.70
2018-05-06T11:24:27.562Z,1.70
2018-05-06T11:25:27.543Z,2.60
2018-05-06T11:26:27.522Z,1.90
2018-05-06T11:27:27.532Z,2.00
2018-05-06T11:28:27.472Z,2.30
2018-05-06T11:29:27.445Z,2.10
2018-05-06T11:30:27.429Z,2.60
2018-05-06T11:31:27.406Z,2.80
2018-05-06T11:32:27.383Z,1.40
2018-05-06T11:33:27.475Z,1.50
2018-05-06T11:34:27.345Z,1.60
2018-05-06T11:35:27.316Z,2.80
2018-05-06T11:36:27.296Z,2.90
2018-05-06T11:37:27.277Z,2.30
2018-05-06T11:38:27.286Z,1.70
2018-05-06T11:39:27.241Z,3.00
2018-05-06T11:40:27.236Z,1.70
2018-05-06T11:41:27.232Z,1.80
2018-05-06T11:42:27.168Z,2.30
2018-05-06T11:43:27.138Z,1.40
2018-05-06T11:44:27.146Z,2.00
2018-05-06T11:45:27.104Z,2.40
2018-05-06T11:46:27.066Z,1.40
2018-05-06T11:47:27.054Z,1.60
2018-05-06T11:48:27.033Z,2.70
2018-05-06T11:49:27.012Z,2.30
2018-05-06T11:50:27.019Z,1.70
2018-05-06T11:51:26.961Z,2.50
2018-05-06T11:52:26.936Z,4.80
2018-05-06T11:53:26.909Z,1.90
2018-05-06T11:54:26.894Z,3.00
2018-05-06T11:55:26.900Z,2.10
2018-05-06T11:56:26.854Z,1.80
2018-05-06T11:57:26.835Z,2.00
2018-05-06T11:58:26.820Z,2.80
2018-05-06T11:59:26.779Z,2.60
2018-05-06T12:00:26.757Z,2.40
2018-05-06T12:01:26.756Z,2.80
2018-05-06T12:02:26.853Z,1.70
2018-05-06T12:03:26.691Z,2.20
2018-05-06T12:04:26.669Z,2.20
2018-05-06T12:05:26.664Z,3.30
2018-05-06T12:06:26.618Z,1.50
2018-05-06T12:07:26.596Z,2.70
2018-05-06T12:08:26.576Z,1.20
2018-05-06T12:09:26.563Z,1.80
2018-05-06T12:10:26.564Z,1.80
2018-05-06T12:11:26.513Z,2.00
2018-05-06T12:12:26.483Z,2.00
2018-05-06T12:13:26.456Z,2.40
2018-05-06T12:14:26.439Z,2.70
2018-05-06T12:15:26.417Z,1.80
2018-05-06T12:16:26.415Z,2.00
2018-05-06T12:17:26.379Z,1.40
2018-05-06T12:18:26.344Z,2.00
2018-05-06T12:19:26.321Z,1.80
2018-05-06T12:20:26.306Z,1.90
2018-05-06T12:21:26.320Z,1.10
2018-05-06T12:22:26.267Z,2.20
2018-05-06T12:23:26.239Z,3.20
2018-05-06T12:24:26.212Z,2.90
2018-05-06T12:25:26.184Z,1.70
2018-05-06T12:26:26.196Z,2.30
2018-05-06T12:27:26.145Z,2.20
2018-05-06T12:28:26.185Z,2.10
2018-05-06T12:29:26.109Z,1.40
2018-05-06T12:30:26.088Z,2.90
2018-05-06T12:31:26.062Z,2.90
2018-05-06T12:32:26.070Z,2.50
2018-05-06T12:33:26.011Z,2.00
2018-05-06T12:34:26.006Z,2.40
2018-05-06T12:35:25.983Z,1.60
2018-05-06T12:36:25.960Z,1.60
2018-05-06T12:37:25.926Z,2.10
2018-05-06T12:38:25.939Z,2.80
2018-05-06T12:39:25.887Z,2.30
2018-05-06T12:40:25.865Z,2.00
2018-05-06T12:41:25.852Z,2.90
2018-05-06T12:42:25.823Z,2.50
2018-05-06T12:43:25.843Z,2.80
2018-05-06T12:44:25.770Z,2.60
2018-05-06T12:45:25.746Z,3.20
2018-05-06T12:46:25.725Z,2.50
2018-05-06T12:47:25.708Z,3.10
2018-05-06T12:48:25.720Z,2.70
2018-05-06T12:49:25.710Z,2.70
2018-05-06T12:50:25.629Z,3.40
2018-05-06T12:51:25.613Z,2.20
2018-05-06T12:52:25.591Z,3.40
2018-05-06T12:53:25.620Z,3.20
2018-05-06T12:54:25.547Z,2.00
2018-05-06T12:55:25.525Z,3.50
2018-05-06T12:56:25.503Z,2.00
2018-05-06T12:57:25.468Z,2.30
2018-05-06T12:58:25.442Z,2.80
2018-05-06T12:59:25.457Z,3.30
2018-05-06T13:00:25.411Z,2.90
2018-05-06T13:01:25.386Z,2.80
2018-05-06T13:02:25.412Z,2.50
2018-05-06T13:03:25.340Z,1.90
2018-05-06T13:04:25.337Z,1.70
2018-05-06T13:05:25.287Z,3.10
2018-05-06T13:06:25.266Z,3.30
2018-05-06T13:07:25.240Z,3.30
2018-05-06T13:08:25.252Z,3.50
2018-05-06T13:09:25.188Z,3.00
2018-05-06T13:10:25.163Z,3.20
2018-05-06T13:11:25.155Z,3.00
2018-05-06T13:12:25.123Z,3.00
2018-05-06T13:13:25.099Z,2.60
2018-05-06T13:14:25.097Z,2.30
2018-05-06T13:15:25.046Z,2.90
2018-05-06T13:16:25.020Z,2.80
2018-05-06T13:17:24.987Z,2.60
2018-05-06T13:18:24.983Z,3.50